Pontiac, Illinois
Current Conditions -  °F | °C
As of 4:35 PM on Tuesday 21 Oct 2014 (Local Time) from KPNT Reporting Station
NA  
Wind Chill: 54°   Ceiling: NA
Heat Index: 54°   Visibility: 10mi
Dew Point: 39°   Wind: 8mph
Humidity: 58%   Direction: 40°NE
Pressure: 30.19"   Gusts: NA
Location:  40.88°N, 88.63°W
Report Text: KPNT 212135Z AUTO 04007KT 10SM 12/04 A3019 RMK AO2 T01210040
Loading
Personal Weather Stations






























Interactive Weather Map
Tropical Storm Tracking
New forecast layout! Learn more

10-Day Weather Forecast

Advertisements
Track Severe Weather on mobile